Time;durP1;ratioP1;P1;durP2;ratioP2;P2;SDS_P1;SDS_P2;PMS_P1;PMS_P2;Temp;Humidity;BMP_temperature;BMP_pressure;BME280_temperature;BME280_humidity;BME280_pressure;Samples;Min_cycle;Max_cycle;Signal;HPM_P1;HPM_P2
2024/01/10 00:01:28;;;;;;;3.53;2.83;;;;;;;;;;5072018;28;20534;-74
2024/01/10 00:03:54;;;;;;;2.10;2.00;;;;;;;;;;5088352;28;20110;-74
2024/01/10 00:06:20;;;;;;;1.55;1.50;;;;;;;;;;5071322;28;20037;-73
2024/01/10 00:08:46;;;;;;;3.05;2.88;;;;;;;;;;5073588;28;20119;-74
2024/01/10 00:11:13;;;;;;;1.42;1.42;;;;;;;;;;5054801;28;20036;-72
2024/01/10 00:13:39;;;;;;;1.30;1.30;;;;;;;;;;5071702;28;20032;-74
2024/01/10 00:16:06;;;;;;;2.10;2.00;;;;;;;;;;5055439;28;20040;-73
2024/01/10 00:18:32;;;;;;;1.92;1.83;;;;;;;;;;5071769;28;20048;-72
2024/01/10 00:20:58;;;;;;;1.20;1.10;;;;;;;;;;5072860;28;20473;-73
2024/01/10 00:23:24;;;;;;;1.77;1.77;;;;;;;;;;5088657;28;20036;-73
2024/01/10 00:25:50;;;;;;;1.42;1.42;;;;;;;;;;5071617;28;20137;-74
2024/01/10 00:28:17;;;;;;;1.67;1.63;;;;;;;;;;5071471;28;20070;-74
2024/01/10 00:30:44;;;;;;;1.38;1.35;;;;;;;;;;5072479;28;20041;-74
2024/01/10 00:33:14;;;;;;;2.50;2.30;;;;;;;;;;5064773;28;20048;-73
2024/01/10 00:35:40;;;;;;;2.00;1.90;;;;;;;;;;5092324;28;20043;-73
2024/01/10 00:38:06;;;;;;;2.35;2.22;;;;;;;;;;5090981;28;20086;-73
2024/01/10 00:40:32;;;;;;;2.05;1.95;;;;;;;;;;5091407;28;20036;-73
2024/01/10 00:42:58;;;;;;;2.10;1.80;;;;;;;;;;5062052;28;20538;-73
2024/01/10 00:45:24;;;;;;;1.85;1.75;;;;;;;;;;5087252;28;20124;-73
2024/01/10 00:47:50;;;;;;;2.17;2.10;;;;;;;;;;5081778;28;20082;-73
2024/01/10 00:50:17;;;;;;;2.75;2.55;;;;;;;;;;5072305;28;20063;-73
2024/01/10 00:52:44;;;;;;;1.60;1.60;;;;;;;;;;5084017;28;20079;-74
2024/01/10 00:55:10;;;;;;;2.30;2.13;;;;;;;;;;5090662;28;20047;-73
2024/01/10 00:57:38;;;;;;;2.38;2.20;;;;;;;;;;5091624;28;20039;-72
2024/01/10 01:00:05;;;;;;;2.03;1.92;;;;;;;;;;5091800;28;20495;-72
2024/01/10 01:02:31;;;;;;;2.47;2.38;;;;;;;;;;5084129;28;20033;-72
2024/01/10 01:04:57;;;;;;;1.83;1.75;;;;;;;;;;5085411;28;20712;-73
2024/01/10 01:07:23;;;;;;;2.58;2.47;;;;;;;;;;5091301;28;20032;-73
2024/01/10 01:09:49;;;;;;;2.78;2.60;;;;;;;;;;5091750;28;20123;-73
2024/01/10 01:12:15;;;;;;;1.95;1.85;;;;;;;;;;5106662;28;20056;-73
2024/01/10 01:14:41;;;;;;;1.73;1.73;;;;;;;;;;5091591;28;20036;-73
2024/01/10 01:17:07;;;;;;;2.13;2.03;;;;;;;;;;5089191;28;20036;-74
2024/01/10 01:19:33;;;;;;;1.88;1.88;;;;;;;;;;5089334;28;20274;-74
2024/01/10 01:21:59;;;;;;;2.20;2.10;;;;;;;;;;5106996;28;20161;-74
2024/01/10 01:24:24;;;;;;;3.05;2.90;;;;;;;;;;5090381;28;20047;-73
2024/01/10 01:26:51;;;;;;;2.22;2.13;;;;;;;;;;5089470;28;20032;-73
2024/01/10 01:29:17;;;;;;;2.42;2.28;;;;;;;;;;5056730;28;20032;-74
2024/01/10 01:31:43;;;;;;;2.58;2.38;;;;;;;;;;5091433;28;20048;-74
2024/01/10 01:34:09;;;;;;;3.63;2.25;;;;;;;;;;5090675;28;20047;-74
2024/01/10 01:36:36;;;;;;;2.83;2.63;;;;;;;;;;5089861;28;20102;-74
2024/01/10 01:39:03;;;;;;;3.20;3.00;;;;;;;;;;5090936;28;20539;-75
2024/01/10 01:41:29;;;;;;;3.13;2.92;;;;;;;;;;5091281;28;20035;-74
2024/01/10 01:43:55;;;;;;;6.07;3.67;;;;;;;;;;5089982;28;20043;-74
2024/01/10 01:46:21;;;;;;;7.50;3.42;;;;;;;;;;5089680;28;20036;-74
2024/01/10 01:48:48;;;;;;;2.75;2.63;;;;;;;;;;5089153;28;20507;-75
2024/01/10 01:51:14;;;;;;;3.00;2.55;;;;;;;;;;5088224;28;20114;-73
2024/01/10 01:53:40;;;;;;;2.15;1.95;;;;;;;;;;5089992;28;20032;-74
2024/01/10 01:56:07;;;;;;;2.90;1.90;;;;;;;;;;5088625;28;20032;-75
2024/01/10 01:58:33;;;;;;;1.58;1.58;;;;;;;;;;5088500;28;20419;-75
2024/01/10 02:00:59;;;;;;;1.55;1.50;;;;;;;;;;5088528;28;20036;-75
2024/01/10 02:03:26;;;;;;;1.48;1.48;;;;;;;;;;5071040;28;20036;-74
2024/01/10 02:05:52;;;;;;;1.25;1.25;;;;;;;;;;5089728;28;20066;-74
2024/01/10 02:08:18;;;;;;;1.20;1.20;;;;;;;;;;5090121;28;20563;-75
2024/01/10 02:10:44;;;;;;;1.20;1.20;;;;;;;;;;5070775;28;20496;-75
2024/01/10 02:13:11;;;;;;;1.30;1.30;;;;;;;;;;5088271;28;20462;-74
2024/01/10 02:15:37;;;;;;;1.60;1.60;;;;;;;;;;5088616;28;20630;-76
2024/01/10 02:18:23;;;;;;;1.10;1.10;;;;;;;;;;5073561;28;20145;-76
2024/01/10 02:20:49;;;;;;;1.00;1.00;;;;;;;;;;5088608;28;20040;-75
2024/01/10 02:23:15;;;;;;;1.45;1.40;;;;;;;;;;5069883;28;20112;-75
2024/01/10 02:25:41;;;;;;;1.20;1.20;;;;;;;;;;5088567;28;20096;-75
2024/01/10 02:28:09;;;;;;;1.10;1.10;;;;;;;;;;5087661;28;20040;-75
2024/01/10 02:30:35;;;;;;;1.00;1.00;;;;;;;;;;5089268;28;20028;-74
2024/01/10 02:33:01;;;;;;;1.40;1.23;;;;;;;;;;5101211;28;20069;-74
2024/01/10 02:35:26;;;;;;;1.20;1.20;;;;;;;;;;5105907;28;20028;-74
2024/01/10 02:37:54;;;;;;;1.33;1.33;;;;;;;;;;5091883;28;20531;-73
2024/01/10 02:40:20;;;;;;;1.50;1.50;;;;;;;;;;5088290;28;20036;-75
2024/01/10 02:42:46;;;;;;;1.35;1.35;;;;;;;;;;5091055;28;20114;-75
2024/01/10 02:45:12;;;;;;;1.50;1.40;;;;;;;;;;5087703;28;20047;-73
2024/01/10 02:47:38;;;;;;;1.30;1.20;;;;;;;;;;5088331;28;20040;-75
2024/01/10 02:50:05;;;;;;;1.13;1.13;;;;;;;;;;5082974;28;20066;-74
2024/01/10 02:52:31;;;;;;;1.10;1.10;;;;;;;;;;5108993;28;20092;-74
2024/01/10 02:54:57;;;;;;;1.20;1.20;;;;;;;;;;5111422;28;20036;-75
2024/01/10 02:57:22;;;;;;;1.20;1.20;;;;;;;;;;5107600;28;20039;-74
2024/01/10 02:59:48;;;;;;;1.08;1.08;;;;;;;;;;5108312;28;20104;-75
2024/01/10 03:02:14;;;;;;;2.55;2.22;;;;;;;;;;5083556;28;20032;-74
2024/01/10 03:04:40;;;;;;;5.93;5.45;;;;;;;;;;5082508;28;20464;-74
2024/01/10 03:07:06;;;;;;;6.30;5.80;;;;;;;;;;5085345;28;20090;-75
2024/01/10 03:09:35;;;;;;;9.07;8.38;;;;;;;;;;5084926;28;20036;-75
2024/01/10 03:12:01;;;;;;;6.78;6.18;;;;;;;;;;5083085;28;20028;-74
2024/01/10 03:14:27;;;;;;;8.05;7.45;;;;;;;;;;5075585;28;20123;-76
2024/01/10 03:16:53;;;;;;;7.40;6.85;;;;;;;;;;5077540;28;20051;-73
2024/01/10 03:19:19;;;;;;;7.05;6.45;;;;;;;;;;5079682;28;20542;-74
2024/01/10 03:21:45;;;;;;;6.90;6.30;;;;;;;;;;5080638;28;20029;-75
2024/01/10 03:24:11;;;;;;;7.63;7.03;;;;;;;;;;5077951;28;20132;-74
2024/01/10 03:26:37;;;;;;;9.55;8.73;;;;;;;;;;5064211;28;20691;-75
2024/01/10 03:29:03;;;;;;;8.77;8.00;;;;;;;;;;5068379;28;20120;-74
2024/01/10 03:31:30;;;;;;;8.65;7.95;;;;;;;;;;5072425;28;20028;-74
2024/01/10 03:33:56;;;;;;;12.25;10.82;;;;;;;;;;5088586;28;20059;-77
2024/01/10 03:36:22;;;;;;;12.07;10.80;;;;;;;;;;5071868;28;20161;-75
2024/01/10 03:38:48;;;;;;;9.00;7.93;;;;;;;;;;5091648;28;20146;-75
2024/01/10 03:41:14;;;;;;;11.27;10.18;;;;;;;;;;5090519;28;20504;-74
2024/01/10 03:43:40;;;;;;;11.30;10.30;;;;;;;;;;5090889;28;20039;-75
2024/01/10 03:46:06;;;;;;;12.43;11.23;;;;;;;;;;5073118;28;20024;-75
2024/01/10 03:48:32;;;;;;;12.25;11.15;;;;;;;;;;5081970;28;20108;-74
2024/01/10 03:50:58;;;;;;;10.82;9.80;;;;;;;;;;5079627;28;20033;-75
2024/01/10 03:53:24;;;;;;;8.98;8.07;;;;;;;;;;5064564;28;20552;-75
2024/01/10 03:55:50;;;;;;;10.68;9.77;;;;;;;;;;5079330;28;20050;-74
2024/01/10 03:58:16;;;;;;;13.52;12.23;;;;;;;;;;5080332;28;20135;-74
2024/01/10 04:00:42;;;;;;;13.20;11.05;;;;;;;;;;5072168;28;20761;-74
2024/01/10 04:03:08;;;;;;;15.00;13.63;;;;;;;;;;5072331;28;20032;-74
2024/01/10 04:05:33;;;;;;;13.02;11.90;;;;;;;;;;5076957;28;20035;-74
2024/01/10 04:08:00;;;;;;;14.95;13.40;;;;;;;;;;5086021;28;20040;-73
2024/01/10 04:10:25;;;;;;;12.57;11.38;;;;;;;;;;5088529;28;20040;-73
2024/01/10 04:12:51;;;;;;;12.52;11.43;;;;;;;;;;5090316;28;20089;-73
2024/01/10 04:15:18;;;;;;;12.80;11.57;;;;;;;;;;5072499;28;20121;-73
2024/01/10 04:17:44;;;;;;;13.68;12.35;;;;;;;;;;5055765;28;20040;-74
2024/01/10 04:20:10;;;;;;;10.00;9.20;;;;;;;;;;5072513;28;20051;-74
2024/01/10 04:22:36;;;;;;;11.82;10.82;;;;;;;;;;5090361;28;20115;-74
2024/01/10 04:25:05;;;;;;;11.68;8.88;;;;;;;;;;5072493;28;20067;-73
2024/01/10 04:27:31;;;;;;;8.38;7.57;;;;;;;;;;5056736;28;20042;-75
2024/01/10 04:29:57;;;;;;;13.65;10.32;;;;;;;;;;5056868;28;20043;-74
2024/01/10 04:32:23;;;;;;;12.05;10.82;;;;;;;;;;5094537;28;20048;-74
2024/01/10 04:34:49;;;;;;;12.57;10.43;;;;;;;;;;5098429;28;20080;-75
2024/01/10 04:37:14;;;;;;;8.77;7.53;;;;;;;;;;5092930;28;20077;-74
2024/01/10 04:39:42;;;;;;;11.18;10.18;;;;;;;;;;5090745;28;20044;-74
2024/01/10 04:42:08;;;;;;;10.98;9.98;;;;;;;;;;5090235;28;20032;-74
2024/01/10 04:44:34;;;;;;;11.25;10.18;;;;;;;;;;5089698;28;20036;-75
2024/01/10 04:47:00;;;;;;;8.43;7.72;;;;;;;;;;5090177;28;20032;-74
2024/01/10 04:49:26;;;;;;;8.30;6.70;;;;;;;;;;5089960;28;20036;-74
2024/01/10 04:51:52;;;;;;;7.28;6.55;;;;;;;;;;5088718;28;20074;-74
2024/01/10 04:54:18;;;;;;;6.68;6.07;;;;;;;;;;5090081;28;20051;-74
2024/01/10 04:56:44;;;;;;;10.07;9.18;;;;;;;;;;5088338;28;20028;-74
2024/01/10 04:59:10;;;;;;;12.05;11.00;;;;;;;;;;5071797;28;20059;-74
2024/01/10 05:01:37;;;;;;;7.35;6.65;;;;;;;;;;5088122;28;20028;-74
2024/01/10 05:04:03;;;;;;;6.63;6.05;;;;;;;;;;5089525;28;20039;-74
2024/01/10 05:06:28;;;;;;;10.82;9.27;;;;;;;;;;5089173;28;20039;-74
2024/01/10 05:08:57;;;;;;;9.73;8.70;;;;;;;;;;5089733;28;20127;-74
2024/01/10 05:11:24;;;;;;;7.30;6.65;;;;;;;;;;5089542;28;20504;-75
2024/01/10 05:13:50;;;;;;;8.57;7.78;;;;;;;;;;5090940;28;20035;-74
2024/01/10 05:16:17;;;;;;;7.78;7.18;;;;;;;;;;5089517;28;20036;-75
2024/01/10 05:18:43;;;;;;;8.93;8.13;;;;;;;;;;5088078;28;20043;-74
2024/01/10 05:21:09;;;;;;;8.35;7.68;;;;;;;;;;5088453;28;20032;-75
2024/01/10 05:23:35;;;;;;;8.55;7.65;;;;;;;;;;5105035;28;20069;-75
2024/01/10 05:26:01;;;;;;;8.15;6.82;;;;;;;;;;5099612;28;20476;-74
2024/01/10 05:28:27;;;;;;;8.05;7.35;;;;;;;;;;5089606;28;20067;-75
2024/01/10 05:30:53;;;;;;;10.50;9.45;;;;;;;;;;5088950;28;20052;-74
2024/01/10 05:33:20;;;;;;;5.75;5.28;;;;;;;;;;5089471;28;20063;-75
2024/01/10 05:35:45;;;;;;;6.00;5.45;;;;;;;;;;5089173;28;20055;-73
2024/01/10 05:38:11;;;;;;;4.78;4.35;;;;;;;;;;5078142;28;20037;-73
2024/01/10 05:40:37;;;;;;;7.82;7.13;;;;;;;;;;5076635;28;20036;-74
2024/01/10 05:43:03;;;;;;;9.45;8.32;;;;;;;;;;5081847;28;20024;-73
2024/01/10 05:45:29;;;;;;;9.30;8.38;;;;;;;;;;5088728;28;20040;-73
2024/01/10 05:47:55;;;;;;;8.73;8.02;;;;;;;;;;5070371;28;20468;-74
2024/01/10 05:50:21;;;;;;;11.15;10.10;;;;;;;;;;5066080;28;20056;-74
2024/01/10 05:52:47;;;;;;;10.55;9.68;;;;;;;;;;5067321;28;20120;-74
2024/01/10 05:55:13;;;;;;;8.60;7.78;;;;;;;;;;5083056;28;20040;-72
2024/01/10 05:57:39;;;;;;;10.65;9.50;;;;;;;;;;5071487;28;20032;-72
2024/01/10 06:00:09;;;;;;;8.18;7.38;;;;;;;;;;5070052;28;20052;-73
2024/01/10 06:02:38;;;;;;;12.80;10.98;;;;;;;;;;5085645;28;20027;-73
2024/01/10 06:05:08;;;;;;;13.85;9.02;;;;;;;;;;5083353;28;20029;-73
2024/01/10 06:07:34;;;;;;;10.13;9.07;;;;;;;;;;5066324;28;20396;-72
2024/01/10 06:10:01;;;;;;;9.13;8.23;;;;;;;;;;5066151;28;20416;-72
2024/01/10 06:12:28;;;;;;;6.05;5.50;;;;;;;;;;5066897;28;20071;-73
2024/01/10 06:14:54;;;;;;;5.97;5.50;;;;;;;;;;5066977;28;20060;-72
2024/01/10 06:17:20;;;;;;;11.38;8.65;;;;;;;;;;5067750;28;20127;-73
2024/01/10 06:19:46;;;;;;;6.65;6.15;;;;;;;;;;5067906;28;20052;-75
2024/01/10 06:22:12;;;;;;;6.95;6.25;;;;;;;;;;5085571;28;20450;-73
2024/01/10 06:24:37;;;;;;;7.75;7.05;;;;;;;;;;5089939;28;20035;-74
2024/01/10 06:27:04;;;;;;;9.23;8.40;;;;;;;;;;5059136;28;20030;-73
2024/01/10 06:29:30;;;;;;;7.97;7.28;;;;;;;;;;5084673;28;20039;-73
2024/01/10 06:31:57;;;;;;;8.20;7.47;;;;;;;;;;5089219;28;20059;-74
2024/01/10 06:34:23;;;;;;;7.22;6.63;;;;;;;;;;5085993;28;20047;-74
2024/01/10 06:36:49;;;;;;;9.60;8.70;;;;;;;;;;5083488;28;20032;-75
2024/01/10 06:39:15;;;;;;;9.52;8.52;;;;;;;;;;5097922;28;20047;-74
2024/01/10 06:41:42;;;;;;;8.77;6.95;;;;;;;;;;5076726;28;20063;-74
2024/01/10 06:44:08;;;;;;;7.47;6.82;;;;;;;;;;5074036;28;20035;-74
2024/01/10 06:46:34;;;;;;;7.75;7.15;;;;;;;;;;5057671;28;20033;-73
2024/01/10 06:49:00;;;;;;;8.35;7.65;;;;;;;;;;5076651;28;20024;-74
2024/01/10 06:51:28;;;;;;;7.60;7.00;;;;;;;;;;5074985;28;20048;-74
2024/01/10 06:54:00;;;;;;;8.32;7.53;;;;;;;;;;5075254;28;20044;-73
2024/01/10 06:56:26;;;;;;;9.95;8.95;;;;;;;;;;5074112;28;20036;-73
2024/01/10 06:58:54;;;;;;;7.55;6.38;;;;;;;;;;5075461;28;20040;-73
2024/01/10 07:01:21;;;;;;;7.38;6.55;;;;;;;;;;5072860;28;20801;-74
2024/01/10 07:03:47;;;;;;;11.88;9.18;;;;;;;;;;5075850;28;20132;-73
2024/01/10 07:06:16;;;;;;;8.43;7.05;;;;;;;;;;5057241;28;20568;-74
2024/01/10 07:08:42;;;;;;;10.60;6.75;;;;;;;;;;5072930;28;20028;-73
2024/01/10 07:11:08;;;;;;;8.07;5.97;;;;;;;;;;5079311;28;20032;-74
2024/01/10 07:13:34;;;;;;;7.57;6.93;;;;;;;;;;5079912;28;20040;-74
2024/01/10 07:16:01;;;;;;;4.90;4.50;;;;;;;;;;5078897;28;20557;-74
2024/01/10 07:18:30;;;;;;;7.25;4.82;;;;;;;;;;5078479;28;20135;-74
2024/01/10 07:20:56;;;;;;;7.80;7.05;;;;;;;;;;5066315;28;20044;-73
2024/01/10 07:23:25;;;;;;;9.10;8.10;;;;;;;;;;5089943;28;20043;-73
2024/01/10 07:25:51;;;;;;;10.20;5.90;;;;;;;;;;5089151;28;20385;-72
2024/01/10 07:28:18;;;;;;;5.25;4.47;;;;;;;;;;5088796;28;20048;-72
2024/01/10 07:30:44;;;;;;;6.80;6.25;;;;;;;;;;5090593;28;20035;-72
2024/01/10 07:33:10;;;;;;;9.18;8.15;;;;;;;;;;5085847;28;20056;-72
2024/01/10 07:35:36;;;;;;;6.47;5.10;;;;;;;;;;5082210;28;20036;-73
2024/01/10 07:38:02;;;;;;;7.30;6.60;;;;;;;;;;5078656;28;20032;-72
2024/01/10 07:40:27;;;;;;;4.75;4.32;;;;;;;;;;5078093;28;20062;-72
2024/01/10 07:42:53;;;;;;;8.35;7.47;;;;;;;;;;5079422;28;20035;-72
2024/01/10 07:45:19;;;;;;;5.47;5.05;;;;;;;;;;5078296;28;20116;-72
2024/01/10 07:47:46;;;;;;;5.07;4.75;;;;;;;;;;5076247;28;20032;-72
2024/01/10 07:50:14;;;;;;;5.68;5.13;;;;;;;;;;5102770;28;20504;-73
2024/01/10 07:52:40;;;;;;;10.15;5.22;;;;;;;;;;5110571;28;20586;-73
2024/01/10 07:55:06;;;;;;;6.45;5.50;;;;;;;;;;5072491;28;20040;-73
2024/01/10 07:57:33;;;;;;;4.78;3.90;;;;;;;;;;5068480;28;20033;-72
2024/01/10 07:59:59;;;;;;;5.68;4.38;;;;;;;;;;5070061;28;20040;-73
2024/01/10 08:02:25;;;;;;;3.08;2.88;;;;;;;;;;5069656;28;20028;-73
2024/01/10 08:04:54;;;;;;;9.00;4.43;;;;;;;;;;5070139;28;20040;-73
2024/01/10 08:07:20;;;;;;;5.45;4.95;;;;;;;;;;5069877;28;20037;-73
2024/01/10 08:09:46;;;;;;;5.90;5.38;;;;;;;;;;5070563;28;20558;-73
2024/01/10 08:12:12;;;;;;;7.68;6.35;;;;;;;;;;5088804;28;20053;-74
2024/01/10 08:14:37;;;;;;;4.90;4.43;;;;;;;;;;5096745;28;20487;-73
2024/01/10 08:17:03;;;;;;;5.95;5.45;;;;;;;;;;5102562;28;20024;-73
2024/01/10 08:19:29;;;;;;;5.22;4.82;;;;;;;;;;5084384;28;20044;-73
2024/01/10 08:21:56;;;;;;;7.65;5.03;;;;;;;;;;5094799;28;20032;-73
2024/01/10 08:24:22;;;;;;;5.60;5.10;;;;;;;;;;5081388;28;20043;-73
2024/01/10 08:26:51;;;;;;;3.92;3.63;;;;;;;;;;5068489;28;20060;-72
2024/01/10 08:29:18;;;;;;;4.53;4.13;;;;;;;;;;5069601;28;20147;-73
2024/01/10 08:31:44;;;;;;;5.57;4.72;;;;;;;;;;5067747;28;20052;-73
2024/01/10 08:34:10;;;;;;;6.20;5.63;;;;;;;;;;5087856;28;20085;-74
2024/01/10 08:36:37;;;;;;;8.93;5.00;;;;;;;;;;5073483;28;20125;-73
2024/01/10 08:39:03;;;;;;;4.78;4.05;;;;;;;;;;5068047;28;20130;-73
2024/01/10 08:41:30;;;;;;;7.07;6.43;;;;;;;;;;5069006;28;20035;-73
2024/01/10 08:43:56;;;;;;;4.35;3.47;;;;;;;;;;5051642;28;20033;-73
2024/01/10 08:46:22;;;;;;;4.93;4.57;;;;;;;;;;5069009;28;20040;-73
2024/01/10 08:48:48;;;;;;;3.92;3.67;;;;;;;;;;5073310;28;20040;-73
2024/01/10 08:51:16;;;;;;;3.90;3.60;;;;;;;;;;5098595;28;20039;-73
2024/01/10 08:53:42;;;;;;;4.80;4.28;;;;;;;;;;5087445;28;20142;-74
2024/01/10 08:56:08;;;;;;;4.43;4.03;;;;;;;;;;5089500;28;20059;-74
2024/01/10 08:58:34;;;;;;;5.35;4.72;;;;;;;;;;5088451;28;20117;-74
2024/01/10 09:01:00;;;;;;;5.75;5.25;;;;;;;;;;5089575;28;20042;-74
2024/01/10 09:03:26;;;;;;;6.00;4.97;;;;;;;;;;5087473;28;20035;-73
2024/01/10 09:05:52;;;;;;;6.80;5.15;;;;;;;;;;5088913;28;20031;-74
2024/01/10 09:08:17;;;;;;;4.55;3.85;;;;;;;;;;5089485;28;20066;-74
2024/01/10 09:10:43;;;;;;;8.65;3.50;;;;;;;;;;5087655;28;20031;-74
2024/01/10 09:13:09;;;;;;;4.70;4.30;;;;;;;;;;5105005;28;20120;-73
2024/01/10 09:15:35;;;;;;;4.32;4.00;;;;;;;;;;5088713;28;20042;-72
2024/01/10 09:18:02;;;;;;;5.38;4.88;;;;;;;;;;5089074;28;20160;-73
2024/01/10 09:20:27;;;;;;;8.57;4.38;;;;;;;;;;5088488;28;20039;-73
2024/01/10 09:22:53;;;;;;;6.38;3.90;;;;;;;;;;5087533;28;20044;-73
2024/01/10 09:25:19;;;;;;;7.97;7.18;;;;;;;;;;5088363;28;20036;-73
2024/01/10 09:27:46;;;;;;;8.93;4.38;;;;;;;;;;5087086;28;20036;-73
2024/01/10 09:30:12;;;;;;;5.10;4.57;;;;;;;;;;5088566;28;20123;-72
2024/01/10 09:32:38;;;;;;;6.50;5.95;;;;;;;;;;5088336;28;20052;-73
2024/01/10 09:35:05;;;;;;;5.28;4.85;;;;;;;;;;5088595;28;20039;-73
2024/01/10 09:37:31;;;;;;;8.15;7.38;;;;;;;;;;5088188;28;20040;-73
2024/01/10 09:39:58;;;;;;;6.53;5.78;;;;;;;;;;5088070;28;20051;-73
2024/01/10 09:42:25;;;;;;;5.13;4.50;;;;;;;;;;5088163;28;20032;-73
2024/01/10 09:44:52;;;;;;;9.18;4.43;;;;;;;;;;5070036;28;20032;-73
2024/01/10 09:47:17;;;;;;;5.50;4.03;;;;;;;;;;5087121;28;20056;-73
2024/01/10 09:49:46;;;;;;;9.38;5.30;;;;;;;;;;5083389;28;20071;-72
2024/01/10 09:52:15;;;;;;;4.10;3.70;;;;;;;;;;5086089;28;20054;-73
2024/01/10 09:54:41;;;;;;;4.53;4.15;;;;;;;;;;5041358;28;20036;-74
2024/01/10 09:57:06;;;;;;;4.53;4.20;;;;;;;;;;5084393;28;20047;-73
2024/01/10 09:59:33;;;;;;;8.90;6.20;;;;;;;;;;5077116;28;20458;-72
2024/01/10 10:01:59;;;;;;;8.27;6.88;;;;;;;;;;5086815;28;20024;-72
2024/01/10 10:04:25;;;;;;;10.27;7.45;;;;;;;;;;5086705;28;20747;-72
2024/01/10 10:07:03;;;;;;;6.72;6.13;;;;;;;;;;5087998;28;20027;-73
2024/01/10 10:09:32;;;;;;;3.78;3.47;;;;;;;;;;5084989;28;20036;-71
2024/01/10 10:11:57;;;;;;;7.07;5.30;;;;;;;;;;5089872;28;20035;-72
2024/01/10 10:14:25;;;;;;;4.45;4.10;;;;;;;;;;5084022;28;20037;-72
2024/01/10 10:16:52;;;;;;;10.15;6.80;;;;;;;;;;5067676;28;20024;-71
2024/01/10 10:19:22;;;;;;;13.38;8.75;;;;;;;;;;5081727;28;20048;-72
2024/01/10 10:21:47;;;;;;;9.95;6.32;;;;;;;;;;5070077;28;20028;-72
2024/01/10 10:24:13;;;;;;;15.77;11.77;;;;;;;;;;5032969;28;20059;-72
2024/01/10 10:26:41;;;;;;;9.63;8.25;;;;;;;;;;5067244;28;20508;-72
2024/01/10 10:29:07;;;;;;;5.20;4.70;;;;;;;;;;5065930;28;20085;-74
2024/01/10 10:31:33;;;;;;;6.22;5.63;;;;;;;;;;5067989;28;20523;-73
2024/01/10 10:33:59;;;;;;;5.75;5.13;;;;;;;;;;5067476;28;20040;-73
2024/01/10 10:36:25;;;;;;;7.03;5.88;;;;;;;;;;5066527;28;20037;-75
2024/01/10 10:38:51;;;;;;;7.40;5.28;;;;;;;;;;5067498;28;20044;-72
2024/01/10 10:41:17;;;;;;;4.40;3.92;;;;;;;;;;5067616;28;20032;-73
2024/01/10 10:43:43;;;;;;;5.25;4.75;;;;;;;;;;5066133;28;20067;-73
2024/01/10 10:46:12;;;;;;;8.73;5.25;;;;;;;;;;5073894;28;20032;-73
2024/01/10 10:48:38;;;;;;;4.57;4.15;;;;;;;;;;5075430;28;20127;-73
2024/01/10 10:51:09;;;;;;;5.45;3.00;;;;;;;;;;5077594;28;20519;-72
2024/01/10 10:53:38;;;;;;;9.15;5.88;;;;;;;;;;5072676;28;20119;-72
2024/01/10 10:56:05;;;;;;;7.57;4.85;;;;;;;;;;5072555;28;20028;-72
2024/01/10 10:58:36;;;;;;;8.02;5.13;;;;;;;;;;5075982;28;20445;-72
2024/01/10 11:01:06;;;;;;;6.35;4.25;;;;;;;;;;5073240;28;20047;-72
2024/01/10 11:03:36;;;;;;;2.47;2.35;;;;;;;;;;5074557;28;20036;-74
2024/01/10 11:06:03;;;;;;;4.43;4.13;;;;;;;;;;5100111;28;20039;-73
2024/01/10 11:08:30;;;;;;;4.38;4.00;;;;;;;;;;5110105;28;20036;-72
2024/01/10 11:10:56;;;;;;;2.00;2.00;;;;;;;;;;5087151;28;20170;-72
2024/01/10 11:13:45;;;;;;;4.00;3.80;;;;;;;;;;5075256;28;20851;-73
2024/01/10 11:16:14;;;;;;;5.78;4.47;;;;;;;;;;5068418;28;20044;-73
2024/01/10 11:18:59;;;;;;;5.07;4.68;;;;;;;;;;5073708;28;20047;-73
2024/01/10 11:21:43;;;;;;;5.25;4.78;;;;;;;;;;5089650;28;20040;-74
2024/01/10 11:24:10;;;;;;;3.90;3.60;;;;;;;;;;5094062;28;20036;-72
2024/01/10 11:26:37;;;;;;;5.43;4.93;;;;;;;;;;5093960;28;20076;-73
2024/01/10 11:29:04;;;;;;;5.10;4.70;;;;;;;;;;5092366;28;20028;-73
2024/01/10 11:31:30;;;;;;;6.97;4.88;;;;;;;;;;5080047;28;20035;-74
2024/01/10 11:33:57;;;;;;;5.10;4.65;;;;;;;;;;5092859;28;20446;-73
2024/01/10 11:36:26;;;;;;;8.20;4.45;;;;;;;;;;5093714;28;20040;-73
2024/01/10 11:38:58;;;;;;;4.13;3.83;;;;;;;;;;5092635;28;20090;-73
2024/01/10 11:41:27;;;;;;;6.05;4.85;;;;;;;;;;5094863;28;20083;-76
2024/01/10 11:44:12;;;;;;;5.47;4.80;;;;;;;;;;5090916;28;20492;-74
2024/01/10 11:46:38;;;;;;;5.05;4.50;;;;;;;;;;5088735;28;20024;-73
2024/01/10 11:49:06;;;;;;;6.90;4.63;;;;;;;;;;5092734;28;20162;-73
2024/01/10 11:51:32;;;;;;;10.65;4.93;;;;;;;;;;5093835;28;20804;-73
2024/01/10 11:53:58;;;;;;;4.10;3.78;;;;;;;;;;5092626;28;20087;-74
2024/01/10 11:56:24;;;;;;;3.78;3.58;;;;;;;;;;5090499;28;20054;-73
2024/01/10 11:58:53;;;;;;;7.18;5.07;;;;;;;;;;5056123;28;20108;-73
2024/01/10 12:01:20;;;;;;;7.60;6.20;;;;;;;;;;5090308;28;20032;-73
2024/01/10 12:03:49;;;;;;;13.32;5.25;;;;;;;;;;5093393;28;20050;-73
2024/01/10 12:06:15;;;;;;;5.78;4.47;;;;;;;;;;5105011;28;20092;-73
2024/01/10 12:08:41;;;;;;;6.07;4.63;;;;;;;;;;5096588;28;20032;-73
2024/01/10 12:11:07;;;;;;;8.80;5.15;;;;;;;;;;5095800;28;20194;-74
2024/01/10 12:13:33;;;;;;;3.28;3.08;;;;;;;;;;5095679;28;20043;-73
2024/01/10 12:15:59;;;;;;;5.47;4.55;;;;;;;;;;5088568;28;20111;-73
2024/01/10 12:18:25;;;;;;;5.03;4.43;;;;;;;;;;5091780;28;20135;-73
2024/01/10 12:20:51;;;;;;;7.80;5.28;;;;;;;;;;5095411;28;20032;-74
2024/01/10 12:23:17;;;;;;;10.90;5.43;;;;;;;;;;5099505;28;20039;-71
2024/01/10 12:25:43;;;;;;;2.92;2.75;;;;;;;;;;5092894;28;20044;-73
2024/01/10 12:28:09;;;;;;;4.97;4.53;;;;;;;;;;5133061;27;20081;-74
2024/01/10 12:30:35;;;;;;;4.35;3.97;;;;;;;;;;5107209;28;20424;-73
2024/01/10 12:33:01;;;;;;;10.00;4.13;;;;;;;;;;5081776;28;20052;-73
2024/01/10 12:35:27;;;;;;;5.90;5.38;;;;;;;;;;5073253;28;20500;-74
2024/01/10 12:37:55;;;;;;;10.90;4.18;;;;;;;;;;5072041;28;20123;-74
2024/01/10 12:40:21;;;;;;;5.35;4.88;;;;;;;;;;5084300;28;20071;-73
2024/01/10 12:42:47;;;;;;;12.00;3.60;;;;;;;;;;5071736;28;20037;-73
2024/01/10 12:45:31;;;;;;;9.80;4.95;;;;;;;;;;5072922;28;20044;-73
2024/01/10 12:47:57;;;;;;;9.48;3.00;;;;;;;;;;5090910;28;20044;-73
2024/01/10 12:50:25;;;;;;;6.68;5.63;;;;;;;;;;5089974;28;20124;-74
2024/01/10 12:52:51;;;;;;;9.48;6.70;;;;;;;;;;5090582;28;20062;-74
2024/01/10 12:55:17;;;;;;;15.57;7.07;;;;;;;;;;5088490;28;20040;-73
2024/01/10 12:57:43;;;;;;;8.85;6.03;;;;;;;;;;5069833;28;20037;-73
2024/01/10 13:00:11;;;;;;;11.98;6.32;;;;;;;;;;5070513;28;20052;-74
2024/01/10 13:02:37;;;;;;;7.20;5.38;;;;;;;;;;5069014;28;20028;-72
2024/01/10 13:05:04;;;;;;;6.25;5.32;;;;;;;;;;5087728;28;20419;-73
2024/01/10 13:07:34;;;;;;;7.78;7.05;;;;;;;;;;5080733;28;20078;-74
2024/01/10 13:10:00;;;;;;;15.23;7.63;;;;;;;;;;5078897;28;20527;-74
2024/01/10 13:12:26;;;;;;;9.38;6.80;;;;;;;;;;5083974;28;20058;-74
2024/01/10 13:14:53;;;;;;;8.10;6.57;;;;;;;;;;5076449;28;20887;-74
2024/01/10 13:17:19;;;;;;;16.23;8.95;;;;;;;;;;5081975;28;20489;-74
2024/01/10 13:19:48;;;;;;;10.38;7.15;;;;;;;;;;5069660;28;20420;-74
2024/01/10 13:22:19;;;;;;;21.95;9.02;;;;;;;;;;5075630;28;20052;-74
2024/01/10 13:24:46;;;;;;;10.98;8.27;;;;;;;;;;5076033;28;20032;-74
2024/01/10 13:27:12;;;;;;;17.25;9.68;;;;;;;;;;5077014;28;20565;-73
2024/01/10 13:29:38;;;;;;;15.98;9.10;;;;;;;;;;5081045;28;20040;-73
2024/01/10 13:32:04;;;;;;;13.68;8.85;;;;;;;;;;5076792;28;20535;-73
2024/01/10 13:34:30;;;;;;;11.82;10.18;;;;;;;;;;5078712;28;20044;-73
2024/01/10 13:36:56;;;;;;;11.63;8.88;;;;;;;;;;5073682;28;20537;-73
2024/01/10 13:39:22;;;;;;;14.32;10.93;;;;;;;;;;5078697;28;20074;-73
2024/01/10 13:41:48;;;;;;;15.57;11.43;;;;;;;;;;5076667;28;20457;-73
2024/01/10 13:44:14;;;;;;;21.58;12.15;;;;;;;;;;5076247;28;20114;-72
2024/01/10 13:46:41;;;;;;;21.23;12.65;;;;;;;;;;5067014;28;20033;-72
2024/01/10 13:49:06;;;;;;;14.57;10.82;;;;;;;;;;5102691;28;20411;-73
2024/01/10 13:51:32;;;;;;;17.88;10.32;;;;;;;;;;5079540;28;20119;-72
2024/01/10 13:53:58;;;;;;;11.23;9.45;;;;;;;;;;5069621;28;20036;-72
2024/01/10 13:56:24;;;;;;;12.50;8.15;;;;;;;;;;5080545;28;20035;-72
2024/01/10 13:58:50;;;;;;;17.70;9.48;;;;;;;;;;5084834;28;20090;-72
2024/01/10 14:01:16;;;;;;;20.98;7.80;;;;;;;;;;5088386;28;20028;-74
2024/01/10 14:03:42;;;;;;;9.68;7.43;;;;;;;;;;5083431;28;20189;-72
2024/01/10 14:06:08;;;;;;;9.10;7.28;;;;;;;;;;5057732;28;20579;-71
2024/01/10 14:08:37;;;;;;;8.98;8.05;;;;;;;;;;5072677;28;20063;-72
2024/01/10 14:11:04;;;;;;;11.32;8.18;;;;;;;;;;5100535;28;20028;-73
2024/01/10 14:13:30;;;;;;;10.30;9.20;;;;;;;;;;5068266;28;20523;-74
2024/01/10 14:15:56;;;;;;;7.57;6.85;;;;;;;;;;5072844;28;20025;-72
2024/01/10 14:18:21;;;;;;;17.42;8.20;;;;;;;;;;5067864;28;20039;-73
2024/01/10 14:20:47;;;;;;;8.75;7.18;;;;;;;;;;5080138;28;20050;-73
2024/01/10 14:23:14;;;;;;;6.15;5.63;;;;;;;;;;5076959;28;20036;-74
2024/01/10 14:25:39;;;;;;;12.70;8.40;;;;;;;;;;5082490;28;20132;-74
2024/01/10 14:28:05;;;;;;;11.85;7.97;;;;;;;;;;5058858;28;20127;-74
2024/01/10 14:30:32;;;;;;;21.98;11.10;;;;;;;;;;5071258;28;20033;-74
2024/01/10 14:32:59;;;;;;;19.42;11.32;;;;;;;;;;5076785;28;20048;-72
2024/01/10 14:35:24;;;;;;;14.82;10.00;;;;;;;;;;5089971;28;20043;-74